sensor_id;sensor_type;location;lat;lon;timestamp;P1;durP1;ratioP1;P2;durP2;ratioP2
13222;SDS011;6676;45.192;5.722;2022-12-22T00:02:43;10.60;;;8.55;;
13222;SDS011;6676;45.192;5.722;2022-12-22T00:05:54;12.20;;;9.65;;
13222;SDS011;6676;45.192;5.722;2022-12-22T00:09:06;12.28;;;9.18;;
13222;SDS011;6676;45.192;5.722;2022-12-22T00:12:18;12.35;;;8.95;;
13222;SDS011;6676;45.192;5.722;2022-12-22T00:15:27;12.35;;;9.55;;
13222;SDS011;6676;45.192;5.722;2022-12-22T00:18:39;12.37;;;9.05;;
13222;SDS011;6676;45.192;5.722;2022-12-22T00:21:22;12.45;;;9.13;;
13222;SDS011;6676;45.192;5.722;2022-12-22T00:24:32;12.73;;;9.73;;
13222;SDS011;6676;45.192;5.722;2022-12-22T00:27:42;11.03;;;8.73;;
13222;SDS011;6676;45.192;5.722;2022-12-22T00:30:51;13.45;;;10.05;;
13222;SDS011;6676;45.192;5.722;2022-12-22T00:34:00;13.38;;;8.83;;
13222;SDS011;6676;45.192;5.722;2022-12-22T00:37:10;12.05;;;8.83;;
13222;SDS011;6676;45.192;5.722;2022-12-22T00:40:21;10.50;;;8.18;;
13222;SDS011;6676;45.192;5.722;2022-12-22T00:43:33;10.93;;;8.10;;
13222;SDS011;6676;45.192;5.722;2022-12-22T00:46:15;11.22;;;9.03;;
13222;SDS011;6676;45.192;5.722;2022-12-22T00:49:25;10.85;;;8.88;;
13222;SDS011;6676;45.192;5.722;2022-12-22T00:52:38;10.90;;;8.50;;
13222;SDS011;6676;45.192;5.722;2022-12-22T00:55:48;12.47;;;9.73;;
13222;SDS011;6676;45.192;5.722;2022-12-22T00:59:00;11.78;;;8.68;;
13222;SDS011;6676;45.192;5.722;2022-12-22T01:02:12;10.28;;;8.53;;
13222;SDS011;6676;45.192;5.722;2022-12-22T01:05:21;11.08;;;8.50;;
13222;SDS011;6676;45.192;5.722;2022-12-22T01:08:30;10.93;;;8.60;;
13222;SDS011;6676;45.192;5.722;2022-12-22T01:11:40;11.48;;;8.20;;
13222;SDS011;6676;45.192;5.722;2022-12-22T01:14:48;10.82;;;7.72;;
13222;SDS011;6676;45.192;5.722;2022-12-22T01:18:02;10.70;;;7.15;;
13222;SDS011;6676;45.192;5.722;2022-12-22T01:21:19;11.30;;;7.62;;
13222;SDS011;6676;45.192;5.722;2022-12-22T01:24:30;12.70;;;8.10;;
13222;SDS011;6676;45.192;5.722;2022-12-22T01:27:40;10.43;;;7.50;;
13222;SDS011;6676;45.192;5.722;2022-12-22T01:30:49;9.73;;;8.40;;
13222;SDS011;6676;45.192;5.722;2022-12-22T01:33:58;11.35;;;7.70;;
13222;SDS011;6676;45.192;5.722;2022-12-22T01:37:08;9.05;;;6.97;;
13222;SDS011;6676;45.192;5.722;2022-12-22T01:40:18;12.03;;;8.05;;
13222;SDS011;6676;45.192;5.722;2022-12-22T01:43:30;8.95;;;7.50;;
13222;SDS011;6676;45.192;5.722;2022-12-22T01:46:41;9.53;;;6.87;;
13222;SDS011;6676;45.192;5.722;2022-12-22T01:49:52;7.85;;;6.58;;
13222;SDS011;6676;45.192;5.722;2022-12-22T01:53:06;7.60;;;6.65;;
13222;SDS011;6676;45.192;5.722;2022-12-22T01:56:19;7.62;;;6.55;;
13222;SDS011;6676;45.192;5.722;2022-12-22T01:59:30;7.17;;;5.92;;
13222;SDS011;6676;45.192;5.722;2022-12-22T02:02:45;8.15;;;5.12;;
13222;SDS011;6676;45.192;5.722;2022-12-22T02:05:58;6.00;;;4.92;;
13222;SDS011;6676;45.192;5.722;2022-12-22T02:09:20;6.85;;;5.85;;
13222;SDS011;6676;45.192;5.722;2022-12-22T02:12:37;6.15;;;5.53;;
13222;SDS011;6676;45.192;5.722;2022-12-22T02:15:49;6.72;;;5.17;;
13222;SDS011;6676;45.192;5.722;2022-12-22T02:19:04;6.20;;;5.60;;
13222;SDS011;6676;45.192;5.722;2022-12-22T02:22:19;7.72;;;6.17;;
13222;SDS011;6676;45.192;5.722;2022-12-22T02:25:33;7.60;;;6.10;;
13222;SDS011;6676;45.192;5.722;2022-12-22T02:28:46;8.25;;;6.17;;
13222;SDS011;6676;45.192;5.722;2022-12-22T02:31:56;7.87;;;6.87;;
13222;SDS011;6676;45.192;5.722;2022-12-22T02:35:09;8.40;;;6.85;;
13222;SDS011;6676;45.192;5.722;2022-12-22T02:38:22;9.63;;;7.28;;
13222;SDS011;6676;45.192;5.722;2022-12-22T02:41:34;9.73;;;7.42;;
13222;SDS011;6676;45.192;5.722;2022-12-22T02:44:46;9.63;;;7.70;;
13222;SDS011;6676;45.192;5.722;2022-12-22T02:47:58;8.40;;;7.22;;
13222;SDS011;6676;45.192;5.722;2022-12-22T02:51:15;10.03;;;7.35;;
13222;SDS011;6676;45.192;5.722;2022-12-22T02:53:54;9.93;;;8.10;;
13222;SDS011;6676;45.192;5.722;2022-12-22T02:57:12;9.55;;;7.70;;
13222;SDS011;6676;45.192;5.722;2022-12-22T03:00:23;8.45;;;7.53;;
13222;SDS011;6676;45.192;5.722;2022-12-22T03:03:33;9.20;;;7.75;;
13222;SDS011;6676;45.192;5.722;2022-12-22T03:19:39;8.63;;;7.05;;
13222;SDS011;6676;45.192;5.722;2022-12-22T03:22:48;8.03;;;6.42;;
13222;SDS011;6676;45.192;5.722;2022-12-22T03:25:57;9.18;;;6.85;;
13222;SDS011;6676;45.192;5.722;2022-12-22T03:28:51;9.83;;;7.33;;
13222;SDS011;6676;45.192;5.722;2022-12-22T03:31:44;11.30;;;7.92;;
13222;SDS011;6676;45.192;5.722;2022-12-22T03:34:38;10.55;;;8.10;;
13222;SDS011;6676;45.192;5.722;2022-12-22T03:37:29;9.30;;;7.90;;
13222;SDS011;6676;45.192;5.722;2022-12-22T03:40:20;10.93;;;7.92;;
13222;SDS011;6676;45.192;5.722;2022-12-22T03:43:13;8.68;;;7.70;;
13222;SDS011;6676;45.192;5.722;2022-12-22T03:46:25;8.80;;;7.90;;
13222;SDS011;6676;45.192;5.722;2022-12-22T03:49:20;9.43;;;7.40;;
13222;SDS011;6676;45.192;5.722;2022-12-22T03:52:13;10.40;;;7.60;;
13222;SDS011;6676;45.192;5.722;2022-12-22T03:55:06;9.80;;;7.87;;
13222;SDS011;6676;45.192;5.722;2022-12-22T03:57:58;8.85;;;7.80;;
13222;SDS011;6676;45.192;5.722;2022-12-22T04:00:51;9.78;;;7.30;;
13222;SDS011;6676;45.192;5.722;2022-12-22T04:03:46;11.48;;;8.70;;
13222;SDS011;6676;45.192;5.722;2022-12-22T04:06:38;8.78;;;7.83;;
13222;SDS011;6676;45.192;5.722;2022-12-22T04:09:37;9.68;;;7.87;;
13222;SDS011;6676;45.192;5.722;2022-12-22T04:12:34;10.55;;;8.38;;
13222;SDS011;6676;45.192;5.722;2022-12-22T04:15:44;10.00;;;8.40;;
13222;SDS011;6676;45.192;5.722;2022-12-22T04:18:36;8.55;;;7.50;;
13222;SDS011;6676;45.192;5.722;2022-12-22T04:21:28;9.70;;;7.22;;
13222;SDS011;6676;45.192;5.722;2022-12-22T04:24:20;8.40;;;7.47;;
13222;SDS011;6676;45.192;5.722;2022-12-22T04:27:11;11.22;;;7.47;;
13222;SDS011;6676;45.192;5.722;2022-12-22T04:30:04;9.03;;;7.50;;
13222;SDS011;6676;45.192;5.722;2022-12-22T04:32:59;9.28;;;7.58;;
13222;SDS011;6676;45.192;5.722;2022-12-22T04:35:51;8.80;;;7.05;;
13222;SDS011;6676;45.192;5.722;2022-12-22T04:38:43;7.72;;;6.92;;
13222;SDS011;6676;45.192;5.722;2022-12-22T04:41:36;7.03;;;6.03;;
13222;SDS011;6676;45.192;5.722;2022-12-22T04:44:27;10.88;;;6.75;;
13222;SDS011;6676;45.192;5.722;2022-12-22T04:47:19;10.23;;;7.17;;
13222;SDS011;6676;45.192;5.722;2022-12-22T04:50:11;8.10;;;7.30;;
13222;SDS011;6676;45.192;5.722;2022-12-22T04:53:02;8.53;;;7.10;;
13222;SDS011;6676;45.192;5.722;2022-12-22T04:55:54;8.10;;;6.62;;
13222;SDS011;6676;45.192;5.722;2022-12-22T04:58:48;8.38;;;6.22;;
13222;SDS011;6676;45.192;5.722;2022-12-22T05:01:39;8.45;;;6.60;;
13222;SDS011;6676;45.192;5.722;2022-12-22T05:04:31;8.25;;;6.30;;
13222;SDS011;6676;45.192;5.722;2022-12-22T05:07:23;9.45;;;7.12;;
13222;SDS011;6676;45.192;5.722;2022-12-22T05:10:16;7.60;;;6.70;;
13222;SDS011;6676;45.192;5.722;2022-12-22T05:13:08;10.45;;;7.28;;
13222;SDS011;6676;45.192;5.722;2022-12-22T05:16:03;9.23;;;6.65;;
13222;SDS011;6676;45.192;5.722;2022-12-22T05:18:56;8.55;;;7.55;;
13222;SDS011;6676;45.192;5.722;2022-12-22T05:21:48;9.00;;;8.00;;
13222;SDS011;6676;45.192;5.722;2022-12-22T05:24:39;8.05;;;7.22;;
13222;SDS011;6676;45.192;5.722;2022-12-22T05:27:31;9.73;;;7.65;;
13222;SDS011;6676;45.192;5.722;2022-12-22T05:30:23;10.20;;;7.95;;
13222;SDS011;6676;45.192;5.722;2022-12-22T05:33:16;8.85;;;7.95;;
13222;SDS011;6676;45.192;5.722;2022-12-22T05:36:12;11.80;;;8.58;;
13222;SDS011;6676;45.192;5.722;2022-12-22T05:39:12;10.98;;;8.45;;
13222;SDS011;6676;45.192;5.722;2022-12-22T05:42:03;11.90;;;8.93;;
13222;SDS011;6676;45.192;5.722;2022-12-22T05:44:56;9.65;;;8.30;;
13222;SDS011;6676;45.192;5.722;2022-12-22T05:47:49;9.48;;;7.97;;
13222;SDS011;6676;45.192;5.722;2022-12-22T05:50:41;10.43;;;8.43;;
13222;SDS011;6676;45.192;5.722;2022-12-22T05:53:29;9.88;;;7.90;;
13222;SDS011;6676;45.192;5.722;2022-12-22T05:56:20;8.63;;;7.70;;
13222;SDS011;6676;45.192;5.722;2022-12-22T05:59:12;10.95;;;7.78;;
13222;SDS011;6676;45.192;5.722;2022-12-22T06:02:04;8.63;;;7.22;;
13222;SDS011;6676;45.192;5.722;2022-12-22T06:04:56;10.55;;;7.33;;
13222;SDS011;6676;45.192;5.722;2022-12-22T06:07:47;8.60;;;6.53;;
13222;SDS011;6676;45.192;5.722;2022-12-22T06:10:41;8.50;;;7.42;;
13222;SDS011;6676;45.192;5.722;2022-12-22T06:13:33;8.30;;;7.10;;
13222;SDS011;6676;45.192;5.722;2022-12-22T06:16:24;8.55;;;6.80;;
13222;SDS011;6676;45.192;5.722;2022-12-22T06:19:18;9.18;;;7.30;;
13222;SDS011;6676;45.192;5.722;2022-12-22T06:22:09;8.28;;;7.37;;
13222;SDS011;6676;45.192;5.722;2022-12-22T06:25:01;9.43;;;8.10;;
13222;SDS011;6676;45.192;5.722;2022-12-22T06:27:58;8.70;;;7.45;;
13222;SDS011;6676;45.192;5.722;2022-12-22T06:30:50;12.07;;;8.18;;
13222;SDS011;6676;45.192;5.722;2022-12-22T06:33:42;10.38;;;8.23;;
13222;SDS011;6676;45.192;5.722;2022-12-22T06:36:52;10.40;;;8.48;;
13222;SDS011;6676;45.192;5.722;2022-12-22T06:39:44;11.63;;;9.10;;
13222;SDS011;6676;45.192;5.722;2022-12-22T06:42:37;10.68;;;8.50;;
13222;SDS011;6676;45.192;5.722;2022-12-22T06:45:49;11.00;;;8.33;;
13222;SDS011;6676;45.192;5.722;2022-12-22T06:48:43;10.58;;;8.30;;
13222;SDS011;6676;45.192;5.722;2022-12-22T06:51:35;9.88;;;7.75;;
13222;SDS011;6676;45.192;5.722;2022-12-22T06:54:26;10.80;;;7.90;;
13222;SDS011;6676;45.192;5.722;2022-12-22T06:57:19;10.90;;;8.05;;
13222;SDS011;6676;45.192;5.722;2022-12-22T07:00:00;10.43;;;8.00;;
13222;SDS011;6676;45.192;5.722;2022-12-22T07:02:59;12.03;;;8.83;;
13222;SDS011;6676;45.192;5.722;2022-12-22T07:05:52;9.98;;;8.23;;
13222;SDS011;6676;45.192;5.722;2022-12-22T07:08:49;10.23;;;7.87;;
13222;SDS011;6676;45.192;5.722;2022-12-22T07:28:05;12.13;;;8.60;;
13222;SDS011;6676;45.192;5.722;2022-12-22T07:30:59;11.50;;;8.45;;
13222;SDS011;6676;45.192;5.722;2022-12-22T07:33:51;10.08;;;8.10;;
13222;SDS011;6676;45.192;5.722;2022-12-22T07:36:43;10.20;;;7.58;;
13222;SDS011;6676;45.192;5.722;2022-12-22T07:39:22;10.63;;;8.30;;
13222;SDS011;6676;45.192;5.722;2022-12-22T07:42:13;9.80;;;8.20;;
13222;SDS011;6676;45.192;5.722;2022-12-22T07:45:23;9.63;;;8.20;;
13222;SDS011;6676;45.192;5.722;2022-12-22T07:48:23;8.88;;;7.65;;
13222;SDS011;6676;45.192;5.722;2022-12-22T07:51:35;8.70;;;7.30;;
13222;SDS011;6676;45.192;5.722;2022-12-22T07:54:18;9.53;;;7.97;;
13222;SDS011;6676;45.192;5.722;2022-12-22T07:57:17;11.15;;;7.58;;
13222;SDS011;6676;45.192;5.722;2022-12-22T08:00:11;10.35;;;8.05;;
13222;SDS011;6676;45.192;5.722;2022-12-22T08:03:07;10.70;;;7.55;;
13222;SDS011;6676;45.192;5.722;2022-12-22T08:06:03;8.15;;;7.22;;
13222;SDS011;6676;45.192;5.722;2022-12-22T08:08:55;8.13;;;6.55;;
13222;SDS011;6676;45.192;5.722;2022-12-22T08:11:47;8.05;;;6.58;;
13222;SDS011;6676;45.192;5.722;2022-12-22T08:14:39;8.75;;;6.80;;
13222;SDS011;6676;45.192;5.722;2022-12-22T08:17:34;10.82;;;7.62;;
13222;SDS011;6676;45.192;5.722;2022-12-22T08:20:26;9.93;;;7.87;;
13222;SDS011;6676;45.192;5.722;2022-12-22T08:23:19;8.93;;;7.60;;
13222;SDS011;6676;45.192;5.722;2022-12-22T08:26:20;10.88;;;6.33;;
13222;SDS011;6676;45.192;5.722;2022-12-22T08:29:10;7.83;;;5.78;;
13222;SDS011;6676;45.192;5.722;2022-12-22T08:32:07;7.53;;;6.42;;
13222;SDS011;6676;45.192;5.722;2022-12-22T08:35:08;7.70;;;6.00;;
13222;SDS011;6676;45.192;5.722;2022-12-22T08:38:00;6.17;;;5.40;;
13222;SDS011;6676;45.192;5.722;2022-12-22T08:40:53;6.75;;;5.47;;
13222;SDS011;6676;45.192;5.722;2022-12-22T08:43:45;8.23;;;6.47;;
13222;SDS011;6676;45.192;5.722;2022-12-22T08:46:37;9.50;;;7.33;;
13222;SDS011;6676;45.192;5.722;2022-12-22T08:49:28;9.53;;;7.40;;
13222;SDS011;6676;45.192;5.722;2022-12-22T08:52:20;9.93;;;7.05;;
13222;SDS011;6676;45.192;5.722;2022-12-22T08:55:12;9.83;;;7.33;;
13222;SDS011;6676;45.192;5.722;2022-12-22T08:58:03;8.95;;;6.90;;
13222;SDS011;6676;45.192;5.722;2022-12-22T09:00:55;9.63;;;6.60;;
13222;SDS011;6676;45.192;5.722;2022-12-22T09:03:49;7.75;;;5.85;;
13222;SDS011;6676;45.192;5.722;2022-12-22T09:06:42;7.85;;;6.40;;
13222;SDS011;6676;45.192;5.722;2022-12-22T09:09:34;9.73;;;6.92;;
13222;SDS011;6676;45.192;5.722;2022-12-22T09:12:26;9.03;;;7.10;;
13222;SDS011;6676;45.192;5.722;2022-12-22T09:15:17;11.33;;;7.05;;
13222;SDS011;6676;45.192;5.722;2022-12-22T09:18:09;9.13;;;7.35;;
13222;SDS011;6676;45.192;5.722;2022-12-22T09:21:02;10.55;;;8.13;;
13222;SDS011;6676;45.192;5.722;2022-12-22T09:23:54;12.45;;;9.00;;
13222;SDS011;6676;45.192;5.722;2022-12-22T09:26:46;9.65;;;7.35;;
13222;SDS011;6676;45.192;5.722;2022-12-22T09:29:39;10.98;;;7.45;;
13222;SDS011;6676;45.192;5.722;2022-12-22T09:32:40;9.10;;;7.08;;
13222;SDS011;6676;45.192;5.722;2022-12-22T09:35:32;9.75;;;7.33;;
13222;SDS011;6676;45.192;5.722;2022-12-22T09:38:25;10.63;;;6.80;;
13222;SDS011;6676;45.192;5.722;2022-12-22T09:41:18;9.60;;;7.05;;
13222;SDS011;6676;45.192;5.722;2022-12-22T09:44:13;8.90;;;7.90;;
13222;SDS011;6676;45.192;5.722;2022-12-22T09:47:11;10.08;;;8.28;;
13222;SDS011;6676;45.192;5.722;2022-12-22T09:50:04;9.90;;;8.00;;
13222;SDS011;6676;45.192;5.722;2022-12-22T09:52:59;10.70;;;7.95;;
13222;SDS011;6676;45.192;5.722;2022-12-22T09:55:52;9.68;;;7.03;;
13222;SDS011;6676;45.192;5.722;2022-12-22T09:58:44;10.38;;;7.05;;
13222;SDS011;6676;45.192;5.722;2022-12-22T10:01:38;9.95;;;6.50;;
13222;SDS011;6676;45.192;5.722;2022-12-22T10:04:43;9.90;;;7.28;;
13222;SDS011;6676;45.192;5.722;2022-12-22T10:07:37;8.85;;;7.25;;
13222;SDS011;6676;45.192;5.722;2022-12-22T10:10:30;8.43;;;6.95;;
13222;SDS011;6676;45.192;5.722;2022-12-22T10:13:22;10.05;;;7.45;;
13222;SDS011;6676;45.192;5.722;2022-12-22T10:16:19;8.68;;;7.12;;
13222;SDS011;6676;45.192;5.722;2022-12-22T10:19:12;11.85;;;7.37;;
13222;SDS011;6676;45.192;5.722;2022-12-22T10:22:08;8.43;;;7.33;;
13222;SDS011;6676;45.192;5.722;2022-12-22T10:25:21;11.95;;;8.60;;
13222;SDS011;6676;45.192;5.722;2022-12-22T10:28:14;11.12;;;7.60;;
13222;SDS011;6676;45.192;5.722;2022-12-22T10:31:18;9.25;;;7.12;;
13222;SDS011;6676;45.192;5.722;2022-12-22T10:34:12;8.38;;;6.90;;
13222;SDS011;6676;45.192;5.722;2022-12-22T10:37:05;10.25;;;8.23;;
13222;SDS011;6676;45.192;5.722;2022-12-22T10:39:57;11.28;;;8.25;;
13222;SDS011;6676;45.192;5.722;2022-12-22T10:42:51;13.05;;;9.15;;
13222;SDS011;6676;45.192;5.722;2022-12-22T10:45:46;11.12;;;7.85;;
13222;SDS011;6676;45.192;5.722;2022-12-22T10:48:39;10.72;;;8.48;;
13222;SDS011;6676;45.192;5.722;2022-12-22T10:51:31;12.05;;;8.80;;
13222;SDS011;6676;45.192;5.722;2022-12-22T10:54:27;10.48;;;8.10;;
13222;SDS011;6676;45.192;5.722;2022-12-22T10:57:23;13.40;;;9.80;;
13222;SDS011;6676;45.192;5.722;2022-12-22T11:00:22;10.32;;;8.45;;
13222;SDS011;6676;45.192;5.722;2022-12-22T11:03:16;10.20;;;7.60;;
13222;SDS011;6676;45.192;5.722;2022-12-22T11:06:12;8.23;;;6.45;;
13222;SDS011;6676;45.192;5.722;2022-12-22T11:09:04;10.32;;;6.87;;
13222;SDS011;6676;45.192;5.722;2022-12-22T11:12:00;10.55;;;7.15;;
13222;SDS011;6676;45.192;5.722;2022-12-22T11:14:54;8.33;;;6.75;;
13222;SDS011;6676;45.192;5.722;2022-12-22T11:17:49;9.43;;;6.80;;
13222;SDS011;6676;45.192;5.722;2022-12-22T11:20:46;8.20;;;6.55;;
13222;SDS011;6676;45.192;5.722;2022-12-22T11:23:43;10.68;;;7.15;;
13222;SDS011;6676;45.192;5.722;2022-12-22T11:26:39;10.38;;;7.17;;
13222;SDS011;6676;45.192;5.722;2022-12-22T11:29:35;10.93;;;7.70;;
13222;SDS011;6676;45.192;5.722;2022-12-22T11:33:03;9.75;;;7.72;;
13222;SDS011;6676;45.192;5.722;2022-12-22T11:36:06;10.10;;;8.33;;
13222;SDS011;6676;45.192;5.722;2022-12-22T11:39:03;14.75;;;9.80;;
13222;SDS011;6676;45.192;5.722;2022-12-22T11:42:10;17.17;;;11.97;;
13222;SDS011;6676;45.192;5.722;2022-12-22T11:45:14;10.88;;;8.33;;
13222;SDS011;6676;45.192;5.722;2022-12-22T11:48:19;11.22;;;8.80;;
13222;SDS011;6676;45.192;5.722;2022-12-22T11:51:16;13.78;;;8.75;;
13222;SDS011;6676;45.192;5.722;2022-12-22T11:54:26;10.10;;;7.83;;
13222;SDS011;6676;45.192;5.722;2022-12-22T11:57:30;9.70;;;7.45;;
13222;SDS011;6676;45.192;5.722;2022-12-22T12:00:23;10.95;;;8.68;;
13222;SDS011;6676;45.192;5.722;2022-12-22T12:03:31;9.85;;;7.62;;
13222;SDS011;6676;45.192;5.722;2022-12-22T12:07:01;8.70;;;7.00;;
13222;SDS011;6676;45.192;5.722;2022-12-22T12:10:03;8.85;;;6.95;;
13222;SDS011;6676;45.192;5.722;2022-12-22T12:12:58;7.37;;;6.15;;
13222;SDS011;6676;45.192;5.722;2022-12-22T12:15:53;9.35;;;7.20;;
13222;SDS011;6676;45.192;5.722;2022-12-22T12:18:54;8.35;;;6.78;;
13222;SDS011;6676;45.192;5.722;2022-12-22T12:21:50;6.67;;;5.85;;
13222;SDS011;6676;45.192;5.722;2022-12-22T12:24:51;9.78;;;6.42;;
13222;SDS011;6676;45.192;5.722;2022-12-22T12:27:52;8.93;;;5.92;;
13222;SDS011;6676;45.192;5.722;2022-12-22T12:30:58;9.33;;;6.37;;
13222;SDS011;6676;45.192;5.722;2022-12-22T12:33:51;9.65;;;5.95;;
13222;SDS011;6676;45.192;5.722;2022-12-22T12:36:47;7.50;;;5.92;;
13222;SDS011;6676;45.192;5.722;2022-12-22T12:39:53;7.08;;;5.83;;
13222;SDS011;6676;45.192;5.722;2022-12-22T12:42:48;7.75;;;6.10;;
13222;SDS011;6676;45.192;5.722;2022-12-22T12:45:41;7.95;;;6.55;;
13222;SDS011;6676;45.192;5.722;2022-12-22T12:48:38;9.13;;;6.35;;
13222;SDS011;6676;45.192;5.722;2022-12-22T12:51:46;8.80;;;6.60;;
13222;SDS011;6676;45.192;5.722;2022-12-22T12:54:38;10.30;;;7.67;;
13222;SDS011;6676;45.192;5.722;2022-12-22T12:57:31;9.05;;;7.53;;
13222;SDS011;6676;45.192;5.722;2022-12-22T13:00:43;9.23;;;7.28;;
13222;SDS011;6676;45.192;5.722;2022-12-22T13:03:38;9.20;;;7.35;;
13222;SDS011;6676;45.192;5.722;2022-12-22T13:06:48;7.33;;;6.28;;
13222;SDS011;6676;45.192;5.722;2022-12-22T13:13:09;9.00;;;7.50;;
13222;SDS011;6676;45.192;5.722;2022-12-22T13:19:22;8.35;;;6.75;;
13222;SDS011;6676;45.192;5.722;2022-12-22T13:22:15;7.95;;;5.85;;
13222;SDS011;6676;45.192;5.722;2022-12-22T13:25:11;7.70;;;6.00;;
13222;SDS011;6676;45.192;5.722;2022-12-22T13:28:04;6.92;;;5.78;;
13222;SDS011;6676;45.192;5.722;2022-12-22T13:30:59;8.58;;;5.55;;
13222;SDS011;6676;45.192;5.722;2022-12-22T13:33:58;7.25;;;5.35;;
13222;SDS011;6676;45.192;5.722;2022-12-22T13:43:01;8.55;;;5.53;;
13222;SDS011;6676;45.192;5.722;2022-12-22T13:45:55;9.10;;;6.28;;
13222;SDS011;6676;45.192;5.722;2022-12-22T13:48:52;8.70;;;5.50;;
13222;SDS011;6676;45.192;5.722;2022-12-22T13:51:49;9.13;;;5.55;;
13222;SDS011;6676;45.192;5.722;2022-12-22T13:54:43;6.87;;;5.40;;
13222;SDS011;6676;45.192;5.722;2022-12-22T13:57:35;7.97;;;5.30;;
13222;SDS011;6676;45.192;5.722;2022-12-22T14:00:28;6.95;;;5.33;;
13222;SDS011;6676;45.192;5.722;2022-12-22T14:03:20;7.30;;;4.70;;
13222;SDS011;6676;45.192;5.722;2022-12-22T14:06:24;7.35;;;5.40;;
13222;SDS011;6676;45.192;5.722;2022-12-22T14:09:20;9.23;;;5.65;;
13222;SDS011;6676;45.192;5.722;2022-12-22T14:12:11;7.08;;;4.62;;
13222;SDS011;6676;45.192;5.722;2022-12-22T14:15:10;7.60;;;5.55;;
13222;SDS011;6676;45.192;5.722;2022-12-22T14:18:13;6.28;;;4.92;;
13222;SDS011;6676;45.192;5.722;2022-12-22T14:21:06;8.05;;;5.53;;
13222;SDS011;6676;45.192;5.722;2022-12-22T14:24:01;6.60;;;4.12;;
13222;SDS011;6676;45.192;5.722;2022-12-22T14:26:56;6.47;;;4.37;;
13222;SDS011;6676;45.192;5.722;2022-12-22T14:29:48;6.03;;;4.28;;
13222;SDS011;6676;45.192;5.722;2022-12-22T14:32:42;5.00;;;3.50;;
13222;SDS011;6676;45.192;5.722;2022-12-22T14:35:36;5.08;;;3.58;;
13222;SDS011;6676;45.192;5.722;2022-12-22T14:38:36;4.70;;;3.50;;
13222;SDS011;6676;45.192;5.722;2022-12-22T14:41:30;7.40;;;4.12;;
13222;SDS011;6676;45.192;5.722;2022-12-22T14:44:40;4.67;;;3.70;;
13222;SDS011;6676;45.192;5.722;2022-12-22T14:47:34;7.55;;;4.72;;
13222;SDS011;6676;45.192;5.722;2022-12-22T14:50:27;5.58;;;4.00;;
13222;SDS011;6676;45.192;5.722;2022-12-22T14:53:21;7.60;;;4.90;;
13222;SDS011;6676;45.192;5.722;2022-12-22T14:56:15;7.90;;;4.78;;
13222;SDS011;6676;45.192;5.722;2022-12-22T14:59:08;6.58;;;4.28;;
13222;SDS011;6676;45.192;5.722;2022-12-22T15:02:18;6.85;;;5.00;;
13222;SDS011;6676;45.192;5.722;2022-12-22T15:05:15;7.23;;;4.37;;
13222;SDS011;6676;45.192;5.722;2022-12-22T15:11:28;7.75;;;4.87;;
13222;SDS011;6676;45.192;5.722;2022-12-22T15:14:21;7.00;;;4.62;;
13222;SDS011;6676;45.192;5.722;2022-12-22T15:17:22;7.10;;;4.40;;
13222;SDS011;6676;45.192;5.722;2022-12-22T15:20:16;5.37;;;4.53;;
13222;SDS011;6676;45.192;5.722;2022-12-22T15:23:13;8.35;;;5.00;;
13222;SDS011;6676;45.192;5.722;2022-12-22T15:26:06;6.85;;;4.78;;
13222;SDS011;6676;45.192;5.722;2022-12-22T15:28:58;10.43;;;5.05;;
13222;SDS011;6676;45.192;5.722;2022-12-22T15:31:51;12.33;;;5.12;;
13222;SDS011;6676;45.192;5.722;2022-12-22T15:34:42;7.97;;;4.70;;
13222;SDS011;6676;45.192;5.722;2022-12-22T15:37:34;7.20;;;4.67;;
13222;SDS011;6676;45.192;5.722;2022-12-22T15:40:26;6.45;;;4.00;;
13222;SDS011;6676;45.192;5.722;2022-12-22T15:43:18;5.53;;;4.28;;
13222;SDS011;6676;45.192;5.722;2022-12-22T15:46:12;8.48;;;5.37;;
13222;SDS011;6676;45.192;5.722;2022-12-22T15:49:07;6.25;;;5.03;;
13222;SDS011;6676;45.192;5.722;2022-12-22T15:52:02;6.83;;;5.10;;
13222;SDS011;6676;45.192;5.722;2022-12-22T15:54:55;7.83;;;5.00;;
13222;SDS011;6676;45.192;5.722;2022-12-22T15:57:48;7.03;;;4.67;;
13222;SDS011;6676;45.192;5.722;2022-12-22T16:00:45;8.70;;;5.28;;
13222;SDS011;6676;45.192;5.722;2022-12-22T16:03:36;6.65;;;5.25;;
13222;SDS011;6676;45.192;5.722;2022-12-22T16:06:28;7.72;;;5.47;;
13222;SDS011;6676;45.192;5.722;2022-12-22T16:09:21;6.30;;;5.03;;
13222;SDS011;6676;45.192;5.722;2022-12-22T16:12:16;8.68;;;5.60;;
13222;SDS011;6676;45.192;5.722;2022-12-22T16:15:09;6.03;;;4.70;;
13222;SDS011;6676;45.192;5.722;2022-12-22T16:18:04;6.67;;;4.58;;
13222;SDS011;6676;45.192;5.722;2022-12-22T16:20:57;5.87;;;4.65;;
13222;SDS011;6676;45.192;5.722;2022-12-22T16:23:56;5.90;;;4.37;;
13222;SDS011;6676;45.192;5.722;2022-12-22T16:26:52;5.67;;;4.33;;
13222;SDS011;6676;45.192;5.722;2022-12-22T16:29:48;4.45;;;3.27;;
13222;SDS011;6676;45.192;5.722;2022-12-22T16:32:45;5.28;;;3.92;;
13222;SDS011;6676;45.192;5.722;2022-12-22T16:35:53;5.33;;;3.60;;
13222;SDS011;6676;45.192;5.722;2022-12-22T16:38:53;6.87;;;3.92;;
13222;SDS011;6676;45.192;5.722;2022-12-22T16:41:47;7.28;;;4.30;;
13222;SDS011;6676;45.192;5.722;2022-12-22T16:44:42;8.23;;;5.60;;
13222;SDS011;6676;45.192;5.722;2022-12-22T16:47:58;9.53;;;5.20;;
13222;SDS011;6676;45.192;5.722;2022-12-22T16:50:55;9.33;;;4.67;;
13222;SDS011;6676;45.192;5.722;2022-12-22T16:53:47;7.72;;;4.85;;
13222;SDS011;6676;45.192;5.722;2022-12-22T16:56:41;7.42;;;4.70;;
13222;SDS011;6676;45.192;5.722;2022-12-22T16:59:38;6.33;;;4.08;;
13222;SDS011;6676;45.192;5.722;2022-12-22T17:02:32;6.12;;;4.62;;
13222;SDS011;6676;45.192;5.722;2022-12-22T17:05:31;6.30;;;5.08;;
13222;SDS011;6676;45.192;5.722;2022-12-22T17:08:29;6.37;;;4.05;;
13222;SDS011;6676;45.192;5.722;2022-12-22T17:11:24;6.58;;;4.30;;
13222;SDS011;6676;45.192;5.722;2022-12-22T17:14:25;8.48;;;4.70;;
13222;SDS011;6676;45.192;5.722;2022-12-22T17:17:28;7.17;;;4.62;;
13222;SDS011;6676;45.192;5.722;2022-12-22T17:20:22;6.45;;;4.55;;
13222;SDS011;6676;45.192;5.722;2022-12-22T17:23:14;7.40;;;5.10;;
13222;SDS011;6676;45.192;5.722;2022-12-22T17:26:07;7.22;;;4.87;;
13222;SDS011;6676;45.192;5.722;2022-12-22T17:29:00;8.35;;;5.40;;
13222;SDS011;6676;45.192;5.722;2022-12-22T17:31:53;7.40;;;4.72;;
13222;SDS011;6676;45.192;5.722;2022-12-22T17:34:45;9.10;;;5.42;;
13222;SDS011;6676;45.192;5.722;2022-12-22T17:37:36;8.45;;;5.40;;
13222;SDS011;6676;45.192;5.722;2022-12-22T17:40:29;6.50;;;5.10;;
13222;SDS011;6676;45.192;5.722;2022-12-22T17:43:22;7.55;;;4.80;;
13222;SDS011;6676;45.192;5.722;2022-12-22T17:46:17;6.50;;;4.80;;
13222;SDS011;6676;45.192;5.722;2022-12-22T17:49:11;9.65;;;5.92;;
13222;SDS011;6676;45.192;5.722;2022-12-22T17:52:04;8.90;;;5.65;;
13222;SDS011;6676;45.192;5.722;2022-12-22T17:54:57;7.33;;;5.45;;
13222;SDS011;6676;45.192;5.722;2022-12-22T17:57:49;9.58;;;5.60;;
13222;SDS011;6676;45.192;5.722;2022-12-22T18:00:41;10.45;;;6.45;;
13222;SDS011;6676;45.192;5.722;2022-12-22T18:03:34;9.48;;;5.87;;
13222;SDS011;6676;45.192;5.722;2022-12-22T18:06:31;8.58;;;5.83;;
13222;SDS011;6676;45.192;5.722;2022-12-22T18:09:24;9.30;;;7.05;;
13222;SDS011;6676;45.192;5.722;2022-12-22T18:12:17;9.65;;;7.17;;
13222;SDS011;6676;45.192;5.722;2022-12-22T18:15:14;9.65;;;7.45;;
13222;SDS011;6676;45.192;5.722;2022-12-22T18:18:14;10.40;;;7.05;;
13222;SDS011;6676;45.192;5.722;2022-12-22T18:21:16;11.50;;;6.75;;
13222;SDS011;6676;45.192;5.722;2022-12-22T18:24:12;12.33;;;7.08;;
13222;SDS011;6676;45.192;5.722;2022-12-22T18:27:08;12.43;;;7.00;;
13222;SDS011;6676;45.192;5.722;2022-12-22T18:30:18;10.25;;;7.30;;
13222;SDS011;6676;45.192;5.722;2022-12-22T18:33:12;11.03;;;8.25;;
13222;SDS011;6676;45.192;5.722;2022-12-22T18:36:04;12.70;;;7.70;;
13222;SDS011;6676;45.192;5.722;2022-12-22T18:38:59;13.70;;;8.68;;
13222;SDS011;6676;45.192;5.722;2022-12-22T18:41:52;14.73;;;11.15;;
13222;SDS011;6676;45.192;5.722;2022-12-22T18:44:44;12.73;;;9.18;;
13222;SDS011;6676;45.192;5.722;2022-12-22T18:47:36;10.15;;;6.78;;
13222;SDS011;6676;45.192;5.722;2022-12-22T18:50:35;12.60;;;7.80;;